createdAt,value
2022-10-05T00:02:59.795Z,9.87
2022-10-05T00:06:30.063Z,9.88
2022-10-05T00:09:59.250Z,9.88
2022-10-05T00:13:26.776Z,9.83
2022-10-05T00:16:48.761Z,9.78
2022-10-05T00:20:19.495Z,9.75
2022-10-05T00:23:41.066Z,9.60
2022-10-05T00:27:19.000Z,9.63
2022-10-05T00:30:45.803Z,9.57
2022-10-05T00:34:07.297Z,9.57
2022-10-05T00:37:28.878Z,9.54
2022-10-05T00:41:05.736Z,9.54
2022-10-05T00:44:57.128Z,9.58
2022-10-05T00:48:27.662Z,9.60
2022-10-05T00:52:07.732Z,9.61
2022-10-05T00:55:32.265Z,9.54
2022-10-05T00:59:17.599Z,9.50
2022-10-05T01:02:44.614Z,9.43
2022-10-05T01:06:42.662Z,9.30
2022-10-05T01:10:21.165Z,9.23
2022-10-05T01:14:24.173Z,8.81
2022-10-05T01:17:48.409Z,8.77
2022-10-05T01:21:27.291Z,8.84
2022-10-05T01:25:19.212Z,8.79
2022-10-05T01:29:01.796Z,8.77
2022-10-05T01:32:41.524Z,8.79
2022-10-05T01:36:20.326Z,8.97
2022-10-05T01:39:48.082Z,9.01
2022-10-05T01:43:42.355Z,9.04
2022-10-05T01:47:13.663Z,9.06
2022-10-05T01:50:56.791Z,8.99
2022-10-05T01:54:27.034Z,9.02
2022-10-05T01:57:51.582Z,9.04
2022-10-05T02:01:28.005Z,8.99
2022-10-05T02:05:09.864Z,8.79
2022-10-05T02:08:37.650Z,8.79
2022-10-05T02:12:07.222Z,8.84
2022-10-05T02:15:47.180Z,8.84
2022-10-05T02:19:39.899Z,8.79
2022-10-05T02:23:09.930Z,8.68
2022-10-05T02:26:33.363Z,8.72
2022-10-05T02:30:01.372Z,8.60
2022-10-05T02:33:30.683Z,8.61
2022-10-05T02:37:17.411Z,8.60
2022-10-05T02:40:51.114Z,8.59
2022-10-05T02:44:18.481Z,8.53
2022-10-05T02:47:58.390Z,8.47
2022-10-05T02:51:22.981Z,8.47
2022-10-05T02:55:00.839Z,8.51
2022-10-05T02:58:29.930Z,8.47
2022-10-05T03:01:57.630Z,8.40
2022-10-05T03:05:27.890Z,8.44
2022-10-05T03:09:06.514Z,8.47
2022-10-05T03:12:54.170Z,8.56
2022-10-05T03:16:22.174Z,8.57
2022-10-05T03:20:05.287Z,8.49
2022-10-05T03:23:59.769Z,8.40
2022-10-05T03:27:33.293Z,8.32
2022-10-05T03:31:11.191Z,8.34
2022-10-05T03:34:39.894Z,8.32
2022-10-05T03:38:24.701Z,8.25
2022-10-05T03:42:00.365Z,8.26
2022-10-05T03:45:33.175Z,8.22
2022-10-05T03:49:11.308Z,8.14
2022-10-05T03:52:47.734Z,7.96
2022-10-05T03:56:34.377Z,7.95
2022-10-05T04:00:04.902Z,8.02
2022-10-05T04:03:35.505Z,8.06
2022-10-05T04:07:01.557Z,7.85
2022-10-05T04:10:41.611Z,7.78
2022-10-05T04:14:11.093Z,7.72
2022-10-05T04:17:48.957Z,7.88
2022-10-05T04:21:37.130Z,7.96
2022-10-05T04:25:06.060Z,7.98
2022-10-05T04:28:54.601Z,8.02
2022-10-05T04:32:16.124Z,8.07
2022-10-05T04:36:26.053Z,8.07
2022-10-05T04:40:17.642Z,7.96
2022-10-05T04:43:45.623Z,7.98
2022-10-05T04:47:16.741Z,7.96
2022-10-05T04:51:01.401Z,7.98
2022-10-05T04:54:37.786Z,7.84
2022-10-05T04:58:19.248Z,7.89
2022-10-05T05:02:13.833Z,7.93
2022-10-05T05:06:12.124Z,7.98
2022-10-05T05:10:05.236Z,7.96
2022-10-05T05:13:50.506Z,7.55
2022-10-05T05:17:24.664Z,7.55
2022-10-05T05:21:02.238Z,7.72
2022-10-05T05:24:28.076Z,7.88
2022-10-05T05:28:14.971Z,7.95
2022-10-05T05:31:48.584Z,8.07
2022-10-05T05:35:29.982Z,7.89
2022-10-05T05:38:57.322Z,7.50
2022-10-05T05:42:51.125Z,7.72
2022-10-05T05:46:44.761Z,7.95
2022-10-05T05:50:41.858Z,8.17
2022-10-05T05:54:15.373Z,8.40
2022-10-05T05:57:59.079Z,8.53
2022-10-05T06:01:33.917Z,8.75
2022-10-05T06:05:02.618Z,9.29
2022-10-05T06:08:47.977Z,9.83
2022-10-05T06:12:15.161Z,10.29
2022-10-05T06:16:04.999Z,10.69
2022-10-05T06:19:28.289Z,11.08
2022-10-05T06:22:58.772Z,11.12
2022-10-05T06:26:46.138Z,11.06
2022-10-05T06:30:15.690Z,11.07
2022-10-05T06:33:43.756Z,11.19
2022-10-05T06:37:13.308Z,11.27
2022-10-05T06:40:53.472Z,11.52
2022-10-05T06:44:30.098Z,11.31
2022-10-05T06:47:58.627Z,10.91
2022-10-05T06:51:43.864Z,10.74
2022-10-05T06:55:30.358Z,10.22
2022-10-05T06:59:06.285Z,10.49
2022-10-05T07:03:05.298Z,10.80
2022-10-05T07:06:38.668Z,11.31
2022-10-05T07:10:29.228Z,11.79
2022-10-05T07:14:07.749Z,12.34
2022-10-05T07:18:02.664Z,12.70
2022-10-05T07:21:39.875Z,12.70
2022-10-05T07:25:28.897Z,12.86
2022-10-05T07:29:15.151Z,12.96
2022-10-05T07:32:44.637Z,13.18
2022-10-05T07:36:54.517Z,13.87
2022-10-05T07:40:35.099Z,13.92
2022-10-05T07:44:15.318Z,14.26
2022-10-05T07:47:54.288Z,14.63
2022-10-05T07:51:21.331Z,14.14
2022-10-05T07:55:02.316Z,14.65
2022-10-05T07:58:33.628Z,14.92
2022-10-05T08:02:34.044Z,14.26
2022-10-05T08:05:57.617Z,14.78
2022-10-05T08:09:45.424Z,15.16
2022-10-05T08:13:12.986Z,14.87
2022-10-05T08:16:38.544Z,15.42
2022-10-05T08:20:16.296Z,16.61
2022-10-05T08:24:04.093Z,17.42
2022-10-05T08:27:52.204Z,16.84
2022-10-05T08:31:30.041Z,16.69
2022-10-05T08:34:59.959Z,16.74
2022-10-05T08:38:31.698Z,16.43
2022-10-05T08:42:10.771Z,16.81
2022-10-05T08:45:50.089Z,17.01
2022-10-05T08:49:56.777Z,17.35
2022-10-05T08:53:21.517Z,18.01
2022-10-05T08:56:45.223Z,17.87
2022-10-05T09:00:10.653Z,18.05
2022-10-05T09:04:01.043Z,18.85
2022-10-05T09:07:49.990Z,19.37
2022-10-05T09:11:15.080Z,18.18
2022-10-05T09:14:38.970Z,17.87
2022-10-05T09:18:03.611Z,18.30
2022-10-05T09:21:50.513Z,18.25
2022-10-05T09:25:44.272Z,17.94
2022-10-05T09:29:27.471Z,17.08
2022-10-05T09:33:36.793Z,17.63
2022-10-05T09:37:27.688Z,18.28
2022-10-05T09:41:01.375Z,18.63
2022-10-05T09:44:36.435Z,18.69
2022-10-05T09:48:23.813Z,19.37
2022-10-05T09:52:25.696Z,18.14
2022-10-05T09:56:26.106Z,17.69
2022-10-05T09:59:59.937Z,18.01
2022-10-05T10:03:59.857Z,18.37
2022-10-05T10:07:45.560Z,18.83
2022-10-05T10:11:41.076Z,18.66
2022-10-05T10:15:21.067Z,19.00
2022-10-05T10:19:04.111Z,19.64
2022-10-05T10:23:02.405Z,19.71
2022-10-05T10:26:38.394Z,20.37
2022-10-05T10:30:19.079Z,19.75
2022-10-05T10:34:04.827Z,19.59
2022-10-05T10:37:39.341Z,18.86
2022-10-05T10:41:25.687Z,18.17
2022-10-05T10:45:15.060Z,17.46
2022-10-05T10:49:03.904Z,17.82
2022-10-05T10:52:28.391Z,18.42
2022-10-05T10:56:08.746Z,19.31
2022-10-05T11:00:08.273Z,19.37
2022-10-05T11:03:49.077Z,19.89
2022-10-05T11:07:41.684Z,18.88
2022-10-05T11:11:27.149Z,19.61
2022-10-05T11:15:13.237Z,19.99
2022-10-05T11:19:04.077Z,20.08
2022-10-05T11:22:33.823Z,19.93
2022-10-05T11:26:04.305Z,20.27
2022-10-05T11:29:48.613Z,19.89
2022-10-05T11:33:11.347Z,19.83
2022-10-05T11:36:54.793Z,19.79
2022-10-05T11:40:25.703Z,19.89
2022-10-05T11:43:56.646Z,19.53
2022-10-05T11:47:37.215Z,19.66
2022-10-05T11:51:34.301Z,20.05
2022-10-05T11:55:21.712Z,20.26
2022-10-05T11:58:56.120Z,19.71
2022-10-05T12:02:55.419Z,19.31
2022-10-05T12:06:21.545Z,19.55
2022-10-05T12:10:21.255Z,19.32
2022-10-05T12:13:53.126Z,19.07
2022-10-05T12:17:25.896Z,18.66
2022-10-05T12:21:14.822Z,18.82
2022-10-05T12:24:38.756Z,18.48
2022-10-05T12:28:09.546Z,18.59
2022-10-05T12:32:04.393Z,18.58
2022-10-05T12:35:47.450Z,18.69
2022-10-05T12:39:28.481Z,18.62
2022-10-05T12:42:52.968Z,18.80
2022-10-05T12:46:29.513Z,18.76
2022-10-05T12:50:10.769Z,18.66
2022-10-05T12:53:53.980Z,18.48
2022-10-05T12:57:35.340Z,18.58
2022-10-05T13:01:25.448Z,18.89
2022-10-05T13:05:11.378Z,19.14
2022-10-05T13:08:51.974Z,18.66
2022-10-05T13:12:39.568Z,18.48
2022-10-05T13:16:35.617Z,18.53
2022-10-05T13:20:03.691Z,18.79
2022-10-05T13:23:43.715Z,19.04
2022-10-05T13:27:22.832Z,19.18
2022-10-05T13:31:24.688Z,18.76
2022-10-05T13:35:11.403Z,18.86
2022-10-05T13:38:36.346Z,18.92
2022-10-05T13:42:08.195Z,18.86
2022-10-05T13:45:42.472Z,18.51
2022-10-05T13:49:16.084Z,18.44
2022-10-05T13:52:39.964Z,18.55
2022-10-05T13:56:23.631Z,18.27
2022-10-05T13:59:58.191Z,18.28
2022-10-05T14:03:38.383Z,18.45
2022-10-05T14:07:22.152Z,18.40
2022-10-05T14:10:47.828Z,18.44
2022-10-05T14:14:10.130Z,18.38
2022-10-05T14:17:43.522Z,18.70
2022-10-05T14:21:10.112Z,18.83
2022-10-05T14:24:45.681Z,19.09
2022-10-05T14:28:15.527Z,18.99
2022-10-05T14:31:47.404Z,18.63
2022-10-05T14:35:17.083Z,18.32
2022-10-05T14:38:56.913Z,18.21
2022-10-05T14:42:28.380Z,18.14
2022-10-05T14:46:03.441Z,18.18
2022-10-05T14:49:36.190Z,18.20
2022-10-05T14:53:25.006Z,18.11
2022-10-05T14:57:11.310Z,18.00
2022-10-05T15:00:49.013Z,18.00
2022-10-05T15:04:30.376Z,17.83
2022-10-05T15:07:57.775Z,17.86
2022-10-05T15:11:49.265Z,17.82
2022-10-05T15:15:34.520Z,17.79
2022-10-05T15:19:04.444Z,17.70
2022-10-05T15:22:41.193Z,17.72
2022-10-05T15:26:22.386Z,17.75
2022-10-05T15:30:09.232Z,17.73
2022-10-05T15:33:40.616Z,17.72
2022-10-05T15:37:21.025Z,17.55
2022-10-05T15:40:47.141Z,17.53
2022-10-05T15:44:38.995Z,17.48
2022-10-05T15:48:23.950Z,17.28
2022-10-05T15:52:05.952Z,17.27
2022-10-05T15:55:33.272Z,17.32
2022-10-05T15:59:04.625Z,17.29
2022-10-05T16:02:54.551Z,17.22
2022-10-05T16:06:47.036Z,17.14
2022-10-05T16:10:14.360Z,17.03
2022-10-05T16:13:44.716Z,17.00
2022-10-05T16:17:27.838Z,16.95
2022-10-05T16:21:23.288Z,16.92
2022-10-05T16:25:08.796Z,16.91
2022-10-05T16:28:56.102Z,16.79
2022-10-05T16:32:24.969Z,16.77
2022-10-05T16:36:22.729Z,16.66
2022-10-05T16:40:02.810Z,16.66
2022-10-05T16:43:59.755Z,16.60
2022-10-05T16:47:39.689Z,16.56
2022-10-05T16:51:19.438Z,16.46
2022-10-05T16:54:51.664Z,16.38
2022-10-05T16:58:27.378Z,16.32
2022-10-05T17:02:17.869Z,16.12
2022-10-05T17:05:49.565Z,16.19
2022-10-05T17:09:41.106Z,16.18
2022-10-05T17:13:19.688Z,15.81
2022-10-05T17:16:56.312Z,15.70
2022-10-05T17:20:46.653Z,15.63
2022-10-05T17:24:10.992Z,15.60
2022-10-05T17:27:35.258Z,15.63
2022-10-05T17:30:58.954Z,15.63
2022-10-05T17:34:20.680Z,15.61
2022-10-05T17:37:44.419Z,15.58
2022-10-05T17:41:12.014Z,15.58
2022-10-05T17:44:33.573Z,15.46
2022-10-05T17:48:44.528Z,15.47
2022-10-05T17:52:46.639Z,15.13
2022-10-05T17:56:10.451Z,15.00
2022-10-05T17:59:37.795Z,15.00
2022-10-05T18:02:59.535Z,15.08
2022-10-05T18:06:25.035Z,15.15
2022-10-05T18:10:28.674Z,15.16
2022-10-05T18:14:15.497Z,15.15
2022-10-05T18:17:47.363Z,15.12
2022-10-05T18:21:15.051Z,15.09
2022-10-05T18:24:56.054Z,14.95
2022-10-05T18:28:55.313Z,14.71
2022-10-05T18:32:40.925Z,14.87
2022-10-05T18:36:12.903Z,14.98
2022-10-05T18:39:54.171Z,15.06
2022-10-05T18:43:42.563Z,15.10
2022-10-05T18:47:19.961Z,15.09
2022-10-05T18:50:50.721Z,15.13
2022-10-05T18:54:41.129Z,15.12
2022-10-05T18:58:11.411Z,15.00
2022-10-05T19:01:42.026Z,15.00
2022-10-05T19:05:18.938Z,14.98
2022-10-05T19:09:17.586Z,14.72
2022-10-05T19:12:54.119Z,14.70
2022-10-05T19:16:30.930Z,14.67
2022-10-05T19:20:04.516Z,14.75
2022-10-05T19:23:54.107Z,15.50
2022-10-05T19:27:18.591Z,15.90
2022-10-05T19:31:09.446Z,16.06
2022-10-05T19:34:46.108Z,16.15
2022-10-05T19:38:35.085Z,16.02
2022-10-05T19:42:06.809Z,15.70
2022-10-05T19:45:33.636Z,15.54
2022-10-05T19:48:57.817Z,15.27
2022-10-05T19:52:28.436Z,15.09
2022-10-05T19:55:55.660Z,15.09
2022-10-05T19:59:19.812Z,15.37
2022-10-05T20:02:44.352Z,15.54
2022-10-05T20:06:10.839Z,15.58
2022-10-05T20:09:53.851Z,15.50
2022-10-05T20:13:22.436Z,15.50
2022-10-05T20:17:02.497Z,15.26
2022-10-05T20:20:45.777Z,14.95
2022-10-05T20:24:15.110Z,14.77
2022-10-05T20:27:43.768Z,14.63
2022-10-05T20:31:12.475Z,14.44
2022-10-05T20:34:38.064Z,14.27
2022-10-05T20:38:00.218Z,14.10
2022-10-05T20:41:21.992Z,14.05
2022-10-05T20:44:44.168Z,14.03
2022-10-05T20:48:05.901Z,13.87
2022-10-05T20:51:30.169Z,13.81
2022-10-05T20:54:58.838Z,13.90
2022-10-05T20:58:20.710Z,14.16
2022-10-05T21:01:47.897Z,14.16
2022-10-05T21:05:09.645Z,14.02
2022-10-05T21:08:37.042Z,13.87
2022-10-05T21:12:03.642Z,13.79
2022-10-05T21:15:29.918Z,13.59
2022-10-05T21:18:53.761Z,13.45
2022-10-05T21:22:15.349Z,13.31
2022-10-05T21:25:37.126Z,13.26
2022-10-05T21:29:02.344Z,13.13
2022-10-05T21:32:26.116Z,13.07
2022-10-05T21:35:52.844Z,13.07
2022-10-05T21:39:19.246Z,13.00
2022-10-05T21:42:43.108Z,12.89
2022-10-05T21:46:07.917Z,12.86
2022-10-05T21:49:30.002Z,12.86
2022-10-05T21:52:51.978Z,12.82
2022-10-05T21:56:18.055Z,12.76
2022-10-05T21:59:42.999Z,12.66
2022-10-05T22:03:04.643Z,12.62
2022-10-05T22:06:26.179Z,12.59
2022-10-05T22:09:53.696Z,12.56
2022-10-05T22:13:16.686Z,12.53
2022-10-05T22:16:41.386Z,12.52
2022-10-05T22:20:05.457Z,12.45
2022-10-05T22:23:27.050Z,12.42
2022-10-05T22:26:51.507Z,12.37
2022-10-05T22:30:17.649Z,12.41
2022-10-05T22:33:39.979Z,12.40
2022-10-05T22:37:06.195Z,12.34
2022-10-05T22:40:30.407Z,12.28
2022-10-05T22:43:54.292Z,12.35
2022-10-05T22:47:15.845Z,12.30
2022-10-05T22:50:37.581Z,12.30
2022-10-05T22:53:59.133Z,12.28
2022-10-05T22:57:20.667Z,12.34
2022-10-05T23:00:58.107Z,12.31
2022-10-05T23:04:22.676Z,12.28
2022-10-05T23:07:46.693Z,12.34
2022-10-05T23:11:16.734Z,12.32
2022-10-05T23:14:41.576Z,12.27
2022-10-05T23:18:03.193Z,12.21
2022-10-05T23:21:27.612Z,12.17
2022-10-05T23:24:49.163Z,12.11
2022-10-05T23:28:13.162Z,12.10
2022-10-05T23:31:37.757Z,12.13
2022-10-05T23:35:01.416Z,12.10
2022-10-05T23:38:25.942Z,12.13
2022-10-05T23:41:47.782Z,12.11
2022-10-05T23:45:11.423Z,12.17
2022-10-05T23:48:38.260Z,12.13
2022-10-05T23:52:00.008Z,11.95
2022-10-05T23:55:21.819Z,11.82
2022-10-05T23:58:48.320Z,11.83
